KMXF/MXF METAR and TAF weather

Enter ICAO airport designator
Station Type Date Time Source
KMXF METAR 2019/02/17 07:28 UTC NOAA

KMXF 170728Z AUTO 02003KT 10SM FEW031 BKN110 13/11 A2982 RMK AO2 DZB19E28 SLP100 $


Station Type Date Time Source
KMXF Decoded METAR 2019/02/17 07:28 UTC NOAA

Maxwell Air Force Base / Montgomery, AL, United States (KMXF) 32-23N 086-22W
Feb 17, 2019 - 02:28 AM EST / 2019.02.17 0728 UTC
Wind: from the NNE (020 degrees) at 3 MPH (3 KT):0
Visibility: 10 mile(s):0
Sky conditions: mostly cloudy
Temperature: 55 F (13 C)
Dew Point: 51 F (11 C)
Relative Humidity: 87%
Pressure (altimeter): 29.82 in. Hg (1009 hPa)
ob: KMXF 170728Z AUTO 02003KT 10SM FEW031 BKN110 13/11 A2982 RMK AO2 DZB19E28 SLP100
cycle: 7

Station Type Date Time Source
KMXF TAF 2019/02/15 21:45 UTC NOAA

TAF TAF
AMD KMXF 152145Z 1521/1702 20003KT 9999 FEW008 SCT019 BKN028 QNH2982INS
TEMPO 1521/1606 BKN019 OVC028
BECMG 1605/1606 22009KT 8000 -SHRA SCT007 OVC015 QNH2977INS
BECMG 1609/1610 23009KT 9999 NSW SCT007 OVC015 QNH2975INS
TEMPO 1612/1615 OVC007
BECMG 1614/1615 30006KT 9999 SCT008 OVC015 QNH2982INS
BECMG 1617/1618 29010G15KT 9999 BKN030 BKN180 QNH2979INS TX21/1620Z TN16/1605Z LAST NO
AMDS AFT 1523 NEXT 1912


Example: see airport list